sensor_id;sensor_type;location;lat;lon;timestamp;P1;durP1;ratioP1;P2;durP2;ratioP2
67768;SDS011;54569;52.018;5.584;2022-11-27T00:01:55;12.27;;;4.65;;
67768;SDS011;54569;52.018;5.584;2022-11-27T00:04:21;9.38;;;4.63;;
67768;SDS011;54569;52.018;5.584;2022-11-27T00:06:46;12.90;;;4.80;;
67768;SDS011;54569;52.018;5.584;2022-11-27T00:09:13;12.43;;;4.57;;
67768;SDS011;54569;52.018;5.584;2022-11-27T00:11:40;10.55;;;4.38;;
67768;SDS011;54569;52.018;5.584;2022-11-27T00:14:06;11.00;;;4.30;;
67768;SDS011;54569;52.018;5.584;2022-11-27T00:16:34;7.95;;;4.13;;
67768;SDS011;54569;52.018;5.584;2022-11-27T00:19:00;10.32;;;4.60;;
67768;SDS011;54569;52.018;5.584;2022-11-27T00:21:27;12.98;;;3.95;;
67768;SDS011;54569;52.018;5.584;2022-11-27T00:23:55;14.45;;;4.97;;
67768;SDS011;54569;52.018;5.584;2022-11-27T00:26:22;11.50;;;4.55;;
67768;SDS011;54569;52.018;5.584;2022-11-27T00:28:48;16.67;;;4.47;;
67768;SDS011;54569;52.018;5.584;2022-11-27T00:31:15;12.13;;;4.90;;
67768;SDS011;54569;52.018;5.584;2022-11-27T00:33:46;12.70;;;4.05;;
67768;SDS011;54569;52.018;5.584;2022-11-27T00:36:13;11.32;;;4.10;;
67768;SDS011;54569;52.018;5.584;2022-11-27T00:38:40;9.65;;;4.20;;
67768;SDS011;54569;52.018;5.584;2022-11-27T00:41:07;16.40;;;4.90;;
67768;SDS011;54569;52.018;5.584;2022-11-27T00:43:34;13.70;;;4.53;;
67768;SDS011;54569;52.018;5.584;2022-11-27T00:46:01;16.60;;;5.68;;
67768;SDS011;54569;52.018;5.584;2022-11-27T00:48:27;13.68;;;4.65;;
67768;SDS011;54569;52.018;5.584;2022-11-27T00:51:03;12.65;;;5.00;;
67768;SDS011;54569;52.018;5.584;2022-11-27T00:53:31;14.68;;;4.70;;
67768;SDS011;54569;52.018;5.584;2022-11-27T00:55:58;11.18;;;4.65;;
67768;SDS011;54569;52.018;5.584;2022-11-27T00:58:24;15.05;;;4.82;;
67768;SDS011;54569;52.018;5.584;2022-11-27T01:00:57;11.38;;;4.50;;
67768;SDS011;54569;52.018;5.584;2022-11-27T01:03:25;15.40;;;4.18;;
67768;SDS011;54569;52.018;5.584;2022-11-27T01:05:50;10.23;;;4.72;;
67768;SDS011;54569;52.018;5.584;2022-11-27T01:08:17;10.80;;;4.22;;
67768;SDS011;54569;52.018;5.584;2022-11-27T01:10:50;10.77;;;4.15;;
67768;SDS011;54569;52.018;5.584;2022-11-27T01:13:17;12.40;;;4.20;;
67768;SDS011;54569;52.018;5.584;2022-11-27T01:15:43;12.80;;;4.50;;
67768;SDS011;54569;52.018;5.584;2022-11-27T01:18:09;9.77;;;4.10;;
67768;SDS011;54569;52.018;5.584;2022-11-27T01:20:39;8.73;;;4.35;;
67768;SDS011;54569;52.018;5.584;2022-11-27T01:23:05;9.93;;;4.57;;
67768;SDS011;54569;52.018;5.584;2022-11-27T01:25:33;11.10;;;4.38;;
67768;SDS011;54569;52.018;5.584;2022-11-27T01:27:59;10.63;;;4.63;;
67768;SDS011;54569;52.018;5.584;2022-11-27T01:30:25;9.18;;;4.30;;
67768;SDS011;54569;52.018;5.584;2022-11-27T01:32:51;16.02;;;4.95;;
67768;SDS011;54569;52.018;5.584;2022-11-27T01:35:16;13.02;;;4.65;;
67768;SDS011;54569;52.018;5.584;2022-11-27T01:37:42;12.38;;;4.53;;
67768;SDS011;54569;52.018;5.584;2022-11-27T01:40:08;14.30;;;4.60;;
67768;SDS011;54569;52.018;5.584;2022-11-27T01:42:34;10.15;;;4.75;;
67768;SDS011;54569;52.018;5.584;2022-11-27T01:44:59;10.00;;;4.57;;
67768;SDS011;54569;52.018;5.584;2022-11-27T01:47:36;8.15;;;4.47;;
67768;SDS011;54569;52.018;5.584;2022-11-27T01:50:08;14.85;;;5.28;;
67768;SDS011;54569;52.018;5.584;2022-11-27T01:52:38;14.68;;;5.68;;
67768;SDS011;54569;52.018;5.584;2022-11-27T01:57:48;11.30;;;4.93;;
67768;SDS011;54569;52.018;5.584;2022-11-27T02:00:24;11.02;;;4.75;;
67768;SDS011;54569;52.018;5.584;2022-11-27T02:02:50;10.73;;;4.13;;
67768;SDS011;54569;52.018;5.584;2022-11-27T02:05:17;10.20;;;4.82;;
67768;SDS011;54569;52.018;5.584;2022-11-27T02:07:45;9.88;;;4.82;;
67768;SDS011;54569;52.018;5.584;2022-11-27T02:10:12;13.13;;;4.93;;
67768;SDS011;54569;52.018;5.584;2022-11-27T02:20:42;9.63;;;4.47;;
67768;SDS011;54569;52.018;5.584;2022-11-27T02:25:55;8.55;;;4.43;;
67768;SDS011;54569;52.018;5.584;2022-11-27T02:33:59;8.23;;;4.43;;
67768;SDS011;54569;52.018;5.584;2022-11-27T02:36:48;11.80;;;4.68;;
67768;SDS011;54569;52.018;5.584;2022-11-27T02:39:20;12.63;;;5.18;;
67768;SDS011;54569;52.018;5.584;2022-11-27T02:41:51;11.18;;;4.93;;
67768;SDS011;54569;52.018;5.584;2022-11-27T02:44:22;9.60;;;4.60;;
67768;SDS011;54569;52.018;5.584;2022-11-27T02:46:50;10.73;;;4.53;;
67768;SDS011;54569;52.018;5.584;2022-11-27T02:49:17;14.00;;;4.65;;
67768;SDS011;54569;52.018;5.584;2022-11-27T02:51:45;10.30;;;4.65;;
67768;SDS011;54569;52.018;5.584;2022-11-27T02:56:48;9.88;;;4.72;;
67768;SDS011;54569;52.018;5.584;2022-11-27T02:59:15;9.52;;;4.78;;
67768;SDS011;54569;52.018;5.584;2022-11-27T03:01:44;11.95;;;4.38;;
67768;SDS011;54569;52.018;5.584;2022-11-27T03:04:16;7.97;;;4.60;;
67768;SDS011;54569;52.018;5.584;2022-11-27T03:06:48;8.23;;;4.65;;
67768;SDS011;54569;52.018;5.584;2022-11-27T03:09:19;10.73;;;4.55;;
67768;SDS011;54569;52.018;5.584;2022-11-27T03:11:49;7.88;;;4.72;;
67768;SDS011;54569;52.018;5.584;2022-11-27T03:14:15;11.82;;;4.47;;
67768;SDS011;54569;52.018;5.584;2022-11-27T03:16:51;8.90;;;4.70;;
67768;SDS011;54569;52.018;5.584;2022-11-27T03:19:24;12.00;;;4.65;;
67768;SDS011;54569;52.018;5.584;2022-11-27T03:21:58;6.80;;;4.10;;
67768;SDS011;54569;52.018;5.584;2022-11-27T03:24:25;8.00;;;4.32;;
67768;SDS011;54569;52.018;5.584;2022-11-27T03:26:55;13.43;;;4.95;;
67768;SDS011;54569;52.018;5.584;2022-11-27T03:29:22;8.75;;;4.78;;
67768;SDS011;54569;52.018;5.584;2022-11-27T03:32:00;10.63;;;4.55;;
67768;SDS011;54569;52.018;5.584;2022-11-27T03:34:27;8.85;;;4.40;;
67768;SDS011;54569;52.018;5.584;2022-11-27T03:36:53;8.10;;;4.53;;
67768;SDS011;54569;52.018;5.584;2022-11-27T03:39:19;8.32;;;4.85;;
67768;SDS011;54569;52.018;5.584;2022-11-27T03:50:13;10.00;;;4.35;;
67768;SDS011;54569;52.018;5.584;2022-11-27T03:55:38;10.88;;;4.38;;
67768;SDS011;54569;52.018;5.584;2022-11-27T03:58:15;11.90;;;4.03;;
67768;SDS011;54569;52.018;5.584;2022-11-27T04:00:56;8.48;;;3.90;;
67768;SDS011;54569;52.018;5.584;2022-11-27T04:03:26;11.90;;;4.35;;
67768;SDS011;54569;52.018;5.584;2022-11-27T04:05:53;10.82;;;4.50;;
67768;SDS011;54569;52.018;5.584;2022-11-27T04:08:19;8.38;;;3.92;;
67768;SDS011;54569;52.018;5.584;2022-11-27T04:10:46;11.68;;;3.88;;
67768;SDS011;54569;52.018;5.584;2022-11-27T04:13:11;10.23;;;3.92;;
67768;SDS011;54569;52.018;5.584;2022-11-27T04:15:37;9.43;;;3.63;;
67768;SDS011;54569;52.018;5.584;2022-11-27T04:18:03;8.35;;;4.00;;
67768;SDS011;54569;52.018;5.584;2022-11-27T04:20:29;7.85;;;3.67;;
67768;SDS011;54569;52.018;5.584;2022-11-27T04:22:55;9.13;;;3.90;;
67768;SDS011;54569;52.018;5.584;2022-11-27T04:25:21;5.63;;;4.18;;
67768;SDS011;54569;52.018;5.584;2022-11-27T04:27:47;4.05;;;3.20;;
67768;SDS011;54569;52.018;5.584;2022-11-27T04:30:13;9.15;;;4.18;;
67768;SDS011;54569;52.018;5.584;2022-11-27T04:32:39;10.75;;;4.15;;
67768;SDS011;54569;52.018;5.584;2022-11-27T04:35:05;8.40;;;3.78;;
67768;SDS011;54569;52.018;5.584;2022-11-27T04:37:31;6.95;;;3.35;;
67768;SDS011;54569;52.018;5.584;2022-11-27T04:39:56;8.05;;;3.17;;
67768;SDS011;54569;52.018;5.584;2022-11-27T04:42:22;8.43;;;3.38;;
67768;SDS011;54569;52.018;5.584;2022-11-27T04:44:48;6.53;;;3.15;;
67768;SDS011;54569;52.018;5.584;2022-11-27T04:47:14;7.95;;;3.42;;
67768;SDS011;54569;52.018;5.584;2022-11-27T04:49:39;8.25;;;3.25;;
67768;SDS011;54569;52.018;5.584;2022-11-27T04:52:05;8.25;;;3.53;;
67768;SDS011;54569;52.018;5.584;2022-11-27T04:54:31;9.82;;;3.00;;
67768;SDS011;54569;52.018;5.584;2022-11-27T04:56:56;5.47;;;2.85;;
67768;SDS011;54569;52.018;5.584;2022-11-27T04:59:22;9.35;;;3.33;;
67768;SDS011;54569;52.018;5.584;2022-11-27T05:01:48;10.70;;;3.05;;
67768;SDS011;54569;52.018;5.584;2022-11-27T05:04:14;6.35;;;3.05;;
67768;SDS011;54569;52.018;5.584;2022-11-27T05:06:40;8.63;;;3.10;;
67768;SDS011;54569;52.018;5.584;2022-11-27T05:09:05;9.45;;;3.38;;
67768;SDS011;54569;52.018;5.584;2022-11-27T05:11:31;6.05;;;2.75;;
67768;SDS011;54569;52.018;5.584;2022-11-27T05:13:57;6.50;;;2.92;;
67768;SDS011;54569;52.018;5.584;2022-11-27T05:19:12;8.88;;;2.70;;
67768;SDS011;54569;52.018;5.584;2022-11-27T05:21:39;6.95;;;2.85;;
67768;SDS011;54569;52.018;5.584;2022-11-27T05:24:05;7.13;;;2.65;;
67768;SDS011;54569;52.018;5.584;2022-11-27T05:26:31;5.95;;;2.97;;
67768;SDS011;54569;52.018;5.584;2022-11-27T05:28:56;7.75;;;2.40;;
67768;SDS011;54569;52.018;5.584;2022-11-27T05:31:22;5.38;;;2.92;;
67768;SDS011;54569;52.018;5.584;2022-11-27T05:33:48;5.30;;;3.28;;
67768;SDS011;54569;52.018;5.584;2022-11-27T05:36:13;4.63;;;2.50;;
67768;SDS011;54569;52.018;5.584;2022-11-27T05:38:39;7.63;;;2.90;;
67768;SDS011;54569;52.018;5.584;2022-11-27T05:41:05;6.65;;;2.50;;
67768;SDS011;54569;52.018;5.584;2022-11-27T05:43:31;3.53;;;2.20;;
67768;SDS011;54569;52.018;5.584;2022-11-27T05:45:56;7.05;;;2.85;;
67768;SDS011;54569;52.018;5.584;2022-11-27T05:48:22;8.32;;;2.20;;
67768;SDS011;54569;52.018;5.584;2022-11-27T05:50:48;4.60;;;2.22;;
67768;SDS011;54569;52.018;5.584;2022-11-27T05:53:13;5.40;;;2.72;;
67768;SDS011;54569;52.018;5.584;2022-11-27T05:55:39;4.82;;;2.42;;
67768;SDS011;54569;52.018;5.584;2022-11-27T05:58:05;10.05;;;2.65;;
67768;SDS011;54569;52.018;5.584;2022-11-27T06:00:30;7.28;;;2.55;;
67768;SDS011;54569;52.018;5.584;2022-11-27T06:02:56;8.15;;;2.45;;
67768;SDS011;54569;52.018;5.584;2022-11-27T06:05:22;3.90;;;2.55;;
67768;SDS011;54569;52.018;5.584;2022-11-27T06:07:47;6.18;;;2.50;;
67768;SDS011;54569;52.018;5.584;2022-11-27T06:10:13;6.07;;;2.60;;
67768;SDS011;54569;52.018;5.584;2022-11-27T06:12:38;7.70;;;2.78;;
67768;SDS011;54569;52.018;5.584;2022-11-27T06:15:04;3.53;;;2.25;;
67768;SDS011;54569;52.018;5.584;2022-11-27T06:17:30;6.32;;;2.47;;
67768;SDS011;54569;52.018;5.584;2022-11-27T06:19:56;7.78;;;3.00;;
67768;SDS011;54569;52.018;5.584;2022-11-27T06:22:21;9.13;;;3.30;;
67768;SDS011;54569;52.018;5.584;2022-11-27T06:24:47;8.32;;;3.50;;
67768;SDS011;54569;52.018;5.584;2022-11-27T06:27:13;4.47;;;2.58;;
67768;SDS011;54569;52.018;5.584;2022-11-27T06:29:39;6.35;;;3.40;;
67768;SDS011;54569;52.018;5.584;2022-11-27T06:32:08;7.97;;;3.25;;
67768;SDS011;54569;52.018;5.584;2022-11-27T06:34:41;8.52;;;3.05;;
67768;SDS011;54569;52.018;5.584;2022-11-27T06:37:07;7.70;;;2.95;;
67768;SDS011;54569;52.018;5.584;2022-11-27T06:39:33;4.25;;;2.42;;
67768;SDS011;54569;52.018;5.584;2022-11-27T06:41:58;5.05;;;2.75;;
67768;SDS011;54569;52.018;5.584;2022-11-27T06:44:24;7.57;;;3.50;;
67768;SDS011;54569;52.018;5.584;2022-11-27T06:46:50;8.45;;;2.97;;
67768;SDS011;54569;52.018;5.584;2022-11-27T06:49:17;6.82;;;3.10;;
67768;SDS011;54569;52.018;5.584;2022-11-27T06:51:44;8.07;;;3.10;;
67768;SDS011;54569;52.018;5.584;2022-11-27T06:54:10;6.60;;;3.00;;
67768;SDS011;54569;52.018;5.584;2022-11-27T06:56:35;6.05;;;2.78;;
67768;SDS011;54569;52.018;5.584;2022-11-27T06:59:01;4.43;;;2.90;;
67768;SDS011;54569;52.018;5.584;2022-11-27T07:01:27;8.25;;;3.08;;
67768;SDS011;54569;52.018;5.584;2022-11-27T07:03:54;7.50;;;3.42;;
67768;SDS011;54569;52.018;5.584;2022-11-27T07:06:21;5.55;;;2.65;;
67768;SDS011;54569;52.018;5.584;2022-11-27T07:08:48;5.18;;;2.88;;
67768;SDS011;54569;52.018;5.584;2022-11-27T07:11:21;6.05;;;3.22;;
67768;SDS011;54569;52.018;5.584;2022-11-27T07:13:49;5.15;;;3.25;;
67768;SDS011;54569;52.018;5.584;2022-11-27T07:16:15;5.93;;;3.20;;
67768;SDS011;54569;52.018;5.584;2022-11-27T07:18:43;8.52;;;3.05;;
67768;SDS011;54569;52.018;5.584;2022-11-27T07:21:13;8.70;;;3.65;;
67768;SDS011;54569;52.018;5.584;2022-11-27T07:23:39;9.48;;;3.67;;
67768;SDS011;54569;52.018;5.584;2022-11-27T07:26:06;11.73;;;3.88;;
67768;SDS011;54569;52.018;5.584;2022-11-27T07:28:33;7.75;;;3.30;;
67768;SDS011;54569;52.018;5.584;2022-11-27T07:30:59;7.65;;;3.78;;
67768;SDS011;54569;52.018;5.584;2022-11-27T07:33:25;9.25;;;3.60;;
67768;SDS011;54569;52.018;5.584;2022-11-27T07:35:57;6.85;;;3.45;;
67768;SDS011;54569;52.018;5.584;2022-11-27T07:38:24;7.40;;;3.93;;
67768;SDS011;54569;52.018;5.584;2022-11-27T07:40:50;8.07;;;4.18;;
67768;SDS011;54569;52.018;5.584;2022-11-27T07:43:15;7.65;;;3.58;;
67768;SDS011;54569;52.018;5.584;2022-11-27T07:45:41;7.50;;;3.60;;
67768;SDS011;54569;52.018;5.584;2022-11-27T07:48:06;8.98;;;4.13;;
67768;SDS011;54569;52.018;5.584;2022-11-27T07:50:32;6.18;;;3.17;;
67768;SDS011;54569;52.018;5.584;2022-11-27T07:52:57;8.88;;;4.20;;
67768;SDS011;54569;52.018;5.584;2022-11-27T07:55:23;6.18;;;4.15;;
67768;SDS011;54569;52.018;5.584;2022-11-27T07:57:49;8.52;;;4.22;;
67768;SDS011;54569;52.018;5.584;2022-11-27T08:00:15;10.18;;;4.43;;
67768;SDS011;54569;52.018;5.584;2022-11-27T08:02:41;8.73;;;4.53;;
67768;SDS011;54569;52.018;5.584;2022-11-27T08:05:06;8.27;;;3.67;;
67768;SDS011;54569;52.018;5.584;2022-11-27T08:07:32;6.00;;;3.65;;
67768;SDS011;54569;52.018;5.584;2022-11-27T08:09:58;9.80;;;4.30;;
67768;SDS011;54569;52.018;5.584;2022-11-27T08:12:24;8.65;;;4.32;;
67768;SDS011;54569;52.018;5.584;2022-11-27T08:14:50;8.93;;;4.22;;
67768;SDS011;54569;52.018;5.584;2022-11-27T08:17:16;7.38;;;4.40;;
67768;SDS011;54569;52.018;5.584;2022-11-27T08:19:42;8.48;;;4.70;;
67768;SDS011;54569;52.018;5.584;2022-11-27T08:22:11;6.45;;;4.28;;
67768;SDS011;54569;52.018;5.584;2022-11-27T08:24:37;5.93;;;4.10;;
67768;SDS011;54569;52.018;5.584;2022-11-27T08:27:03;6.95;;;4.28;;
67768;SDS011;54569;52.018;5.584;2022-11-27T08:29:29;7.38;;;4.07;;
67768;SDS011;54569;52.018;5.584;2022-11-27T08:31:54;11.73;;;5.47;;
67768;SDS011;54569;52.018;5.584;2022-11-27T08:34:20;9.07;;;5.15;;
67768;SDS011;54569;52.018;5.584;2022-11-27T08:36:46;10.65;;;4.93;;
67768;SDS011;54569;52.018;5.584;2022-11-27T08:39:11;9.05;;;4.60;;
67768;SDS011;54569;52.018;5.584;2022-11-27T08:41:37;8.40;;;5.10;;
67768;SDS011;54569;52.018;5.584;2022-11-27T08:44:03;6.72;;;4.40;;
67768;SDS011;54569;52.018;5.584;2022-11-27T08:46:29;7.22;;;4.38;;
67768;SDS011;54569;52.018;5.584;2022-11-27T08:48:54;10.60;;;4.85;;
67768;SDS011;54569;52.018;5.584;2022-11-27T08:51:20;9.13;;;5.13;;
67768;SDS011;54569;52.018;5.584;2022-11-27T08:53:46;7.20;;;4.95;;
67768;SDS011;54569;52.018;5.584;2022-11-27T08:56:16;10.48;;;5.65;;
67768;SDS011;54569;52.018;5.584;2022-11-27T08:58:43;11.30;;;5.57;;
67768;SDS011;54569;52.018;5.584;2022-11-27T09:01:10;10.40;;;4.80;;
67768;SDS011;54569;52.018;5.584;2022-11-27T09:03:41;10.32;;;5.43;;
67768;SDS011;54569;52.018;5.584;2022-11-27T09:06:07;8.80;;;4.90;;
67768;SDS011;54569;52.018;5.584;2022-11-27T09:08:34;8.93;;;4.88;;
67768;SDS011;54569;52.018;5.584;2022-11-27T09:11:00;10.93;;;5.28;;
67768;SDS011;54569;52.018;5.584;2022-11-27T09:13:28;11.27;;;5.38;;
67768;SDS011;54569;52.018;5.584;2022-11-27T09:15:54;7.78;;;4.78;;
67768;SDS011;54569;52.018;5.584;2022-11-27T09:18:21;9.02;;;5.75;;
67768;SDS011;54569;52.018;5.584;2022-11-27T09:20:53;8.88;;;5.25;;
67768;SDS011;54569;52.018;5.584;2022-11-27T09:23:23;12.20;;;5.60;;
67768;SDS011;54569;52.018;5.584;2022-11-27T09:25:49;10.10;;;5.32;;
67768;SDS011;54569;52.018;5.584;2022-11-27T09:28:15;12.23;;;5.13;;
67768;SDS011;54569;52.018;5.584;2022-11-27T09:30:40;10.57;;;5.80;;
67768;SDS011;54569;52.018;5.584;2022-11-27T09:33:06;8.82;;;4.43;;
67768;SDS011;54569;52.018;5.584;2022-11-27T09:35:32;8.23;;;5.05;;
67768;SDS011;54569;52.018;5.584;2022-11-27T09:37:57;9.43;;;5.47;;
67768;SDS011;54569;52.018;5.584;2022-11-27T09:40:23;8.45;;;5.05;;
67768;SDS011;54569;52.018;5.584;2022-11-27T09:42:51;10.50;;;5.72;;
67768;SDS011;54569;52.018;5.584;2022-11-27T09:45:19;9.90;;;5.43;;
67768;SDS011;54569;52.018;5.584;2022-11-27T09:47:49;7.55;;;4.43;;
67768;SDS011;54569;52.018;5.584;2022-11-27T09:50:23;11.20;;;5.15;;
67768;SDS011;54569;52.018;5.584;2022-11-27T09:52:56;10.95;;;5.40;;
67768;SDS011;54569;52.018;5.584;2022-11-27T09:55:42;12.10;;;5.70;;
67768;SDS011;54569;52.018;5.584;2022-11-27T10:00:42;7.70;;;5.13;;
67768;SDS011;54569;52.018;5.584;2022-11-27T10:03:19;7.68;;;5.25;;
67768;SDS011;54569;52.018;5.584;2022-11-27T10:05:54;13.93;;;5.35;;
67768;SDS011;54569;52.018;5.584;2022-11-27T10:11:23;8.90;;;5.40;;
67768;SDS011;54569;52.018;5.584;2022-11-27T10:14:02;9.15;;;5.47;;
67768;SDS011;54569;52.018;5.584;2022-11-27T10:16:43;14.02;;;6.30;;
67768;SDS011;54569;52.018;5.584;2022-11-27T10:22:00;10.10;;;4.93;;
67768;SDS011;54569;52.018;5.584;2022-11-27T10:24:55;12.82;;;5.47;;
67768;SDS011;54569;52.018;5.584;2022-11-27T10:27:24;9.93;;;5.85;;
67768;SDS011;54569;52.018;5.584;2022-11-27T10:29:55;8.07;;;5.10;;
67768;SDS011;54569;52.018;5.584;2022-11-27T10:32:26;7.80;;;5.03;;
67768;SDS011;54569;52.018;5.584;2022-11-27T10:34:58;10.85;;;6.28;;
67768;SDS011;54569;52.018;5.584;2022-11-27T10:43:24;6.40;;;4.82;;
67768;SDS011;54569;52.018;5.584;2022-11-27T10:48:20;10.57;;;5.30;;
67768;SDS011;54569;52.018;5.584;2022-11-27T10:50:46;9.40;;;5.35;;
67768;SDS011;54569;52.018;5.584;2022-11-27T10:53:22;11.45;;;5.22;;
67768;SDS011;54569;52.018;5.584;2022-11-27T10:58:44;9.30;;;5.53;;
67768;SDS011;54569;52.018;5.584;2022-11-27T11:01:21;8.13;;;4.65;;
67768;SDS011;54569;52.018;5.584;2022-11-27T11:03:48;10.15;;;5.68;;
67768;SDS011;54569;52.018;5.584;2022-11-27T11:06:21;7.10;;;5.15;;
67768;SDS011;54569;52.018;5.584;2022-11-27T11:09:03;12.73;;;5.60;;
67768;SDS011;54569;52.018;5.584;2022-11-27T11:11:36;7.97;;;5.22;;
67768;SDS011;54569;52.018;5.584;2022-11-27T11:14:02;8.65;;;5.65;;
67768;SDS011;54569;52.018;5.584;2022-11-27T11:16:28;7.65;;;4.88;;
67768;SDS011;54569;52.018;5.584;2022-11-27T11:18:55;10.90;;;5.50;;
67768;SDS011;54569;52.018;5.584;2022-11-27T11:21:31;9.32;;;5.63;;
67768;SDS011;54569;52.018;5.584;2022-11-27T11:24:03;10.73;;;5.68;;
67768;SDS011;54569;52.018;5.584;2022-11-27T11:26:35;10.30;;;5.78;;
67768;SDS011;54569;52.018;5.584;2022-11-27T11:29:05;8.47;;;5.77;;
67768;SDS011;54569;52.018;5.584;2022-11-27T11:31:46;10.23;;;5.97;;
67768;SDS011;54569;52.018;5.584;2022-11-27T11:34:16;13.07;;;6.63;;
67768;SDS011;54569;52.018;5.584;2022-11-27T11:39:28;10.05;;;6.60;;
67768;SDS011;54569;52.018;5.584;2022-11-27T11:41:56;12.07;;;6.15;;
67768;SDS011;54569;52.018;5.584;2022-11-27T11:44:35;8.63;;;5.65;;
67768;SDS011;54569;52.018;5.584;2022-11-27T11:47:02;12.60;;;5.78;;
67768;SDS011;54569;52.018;5.584;2022-11-27T11:49:28;12.48;;;5.93;;
67768;SDS011;54569;52.018;5.584;2022-11-27T11:52:01;7.70;;;6.22;;
67768;SDS011;54569;52.018;5.584;2022-11-27T12:00:04;7.55;;;5.45;;
67768;SDS011;54569;52.018;5.584;2022-11-27T12:05:21;6.20;;;5.20;;
67768;SDS011;54569;52.018;5.584;2022-11-27T12:16:30;10.18;;;6.20;;
67768;SDS011;54569;52.018;5.584;2022-11-27T12:25:00;9.82;;;6.10;;
67768;SDS011;54569;52.018;5.584;2022-11-27T12:30:44;10.48;;;5.32;;
67768;SDS011;54569;52.018;5.584;2022-11-27T12:38:31;8.05;;;5.18;;
67768;SDS011;54569;52.018;5.584;2022-11-27T12:44:05;9.93;;;5.75;;
67768;SDS011;54569;52.018;5.584;2022-11-27T12:49:21;7.65;;;5.50;;
67768;SDS011;54569;52.018;5.584;2022-11-27T12:51:52;9.07;;;5.40;;
67768;SDS011;54569;52.018;5.584;2022-11-27T12:54:35;8.63;;;6.03;;
67768;SDS011;54569;52.018;5.584;2022-11-27T12:57:22;12.20;;;6.32;;
67768;SDS011;54569;52.018;5.584;2022-11-27T12:59:59;9.32;;;5.70;;
67768;SDS011;54569;52.018;5.584;2022-11-27T13:07:36;11.90;;;6.13;;
67768;SDS011;54569;52.018;5.584;2022-11-27T13:10:23;11.18;;;6.65;;
67768;SDS011;54569;52.018;5.584;2022-11-27T13:18:16;8.40;;;5.70;;
67768;SDS011;54569;52.018;5.584;2022-11-27T13:20:46;9.70;;;5.90;;
67768;SDS011;54569;52.018;5.584;2022-11-27T13:23:13;10.80;;;6.35;;
67768;SDS011;54569;52.018;5.584;2022-11-27T13:25:41;7.63;;;5.80;;
67768;SDS011;54569;52.018;5.584;2022-11-27T13:28:21;8.48;;;5.70;;
67768;SDS011;54569;52.018;5.584;2022-11-27T13:31:07;8.02;;;5.75;;
67768;SDS011;54569;52.018;5.584;2022-11-27T13:33:42;9.65;;;5.90;;
67768;SDS011;54569;52.018;5.584;2022-11-27T13:36:23;11.07;;;6.60;;
67768;SDS011;54569;52.018;5.584;2022-11-27T13:38:54;9.15;;;6.00;;
67768;SDS011;54569;52.018;5.584;2022-11-27T13:41:27;9.80;;;5.88;;
67768;SDS011;54569;52.018;5.584;2022-11-27T13:43:58;8.73;;;5.55;;
67768;SDS011;54569;52.018;5.584;2022-11-27T13:46:29;10.63;;;6.43;;
67768;SDS011;54569;52.018;5.584;2022-11-27T13:49:05;7.95;;;5.60;;
67768;SDS011;54569;52.018;5.584;2022-11-27T13:51:35;10.00;;;6.78;;
67768;SDS011;54569;52.018;5.584;2022-11-27T13:54:09;7.38;;;5.78;;
67768;SDS011;54569;52.018;5.584;2022-11-27T13:56:43;6.07;;;4.93;;
67768;SDS011;54569;52.018;5.584;2022-11-27T13:59:13;9.05;;;5.95;;
67768;SDS011;54569;52.018;5.584;2022-11-27T14:01:59;9.52;;;5.97;;
67768;SDS011;54569;52.018;5.584;2022-11-27T14:04:28;9.63;;;5.65;;
67768;SDS011;54569;52.018;5.584;2022-11-27T14:06:59;7.57;;;5.72;;
67768;SDS011;54569;52.018;5.584;2022-11-27T14:09:41;8.27;;;5.65;;
67768;SDS011;54569;52.018;5.584;2022-11-27T14:12:19;8.52;;;5.60;;
67768;SDS011;54569;52.018;5.584;2022-11-27T14:15:02;11.90;;;6.20;;
67768;SDS011;54569;52.018;5.584;2022-11-27T14:17:40;8.73;;;6.15;;
67768;SDS011;54569;52.018;5.584;2022-11-27T14:22:52;8.43;;;5.97;;
67768;SDS011;54569;52.018;5.584;2022-11-27T14:25:32;9.32;;;6.15;;
67768;SDS011;54569;52.018;5.584;2022-11-27T14:28:13;8.77;;;6.60;;
67768;SDS011;54569;52.018;5.584;2022-11-27T14:31:00;9.25;;;6.35;;
67768;SDS011;54569;52.018;5.584;2022-11-27T14:33:30;7.32;;;5.90;;
67768;SDS011;54569;52.018;5.584;2022-11-27T14:36:01;8.73;;;6.05;;
67768;SDS011;54569;52.018;5.584;2022-11-27T14:38:30;7.88;;;5.35;;
67768;SDS011;54569;52.018;5.584;2022-11-27T14:41:07;8.52;;;5.65;;
67768;SDS011;54569;52.018;5.584;2022-11-27T14:43:35;8.43;;;5.95;;
67768;SDS011;54569;52.018;5.584;2022-11-27T14:46:01;8.70;;;5.85;;
67768;SDS011;54569;52.018;5.584;2022-11-27T14:51:17;8.82;;;5.53;;
67768;SDS011;54569;52.018;5.584;2022-11-27T14:53:45;8.02;;;6.07;;
67768;SDS011;54569;52.018;5.584;2022-11-27T14:56:12;7.28;;;5.63;;
67768;SDS011;54569;52.018;5.584;2022-11-27T14:58:42;7.10;;;5.30;;
67768;SDS011;54569;52.018;5.584;2022-11-27T15:04:03;5.57;;;4.90;;
67768;SDS011;54569;52.018;5.584;2022-11-27T15:09:00;6.50;;;5.18;;
67768;SDS011;54569;52.018;5.584;2022-11-27T15:11:26;8.13;;;5.03;;
67768;SDS011;54569;52.018;5.584;2022-11-27T15:13:54;7.32;;;5.15;;
67768;SDS011;54569;52.018;5.584;2022-11-27T15:16:22;6.70;;;5.32;;
67768;SDS011;54569;52.018;5.584;2022-11-27T15:18:54;8.30;;;5.45;;
67768;SDS011;54569;52.018;5.584;2022-11-27T15:21:27;9.93;;;5.20;;
67768;SDS011;54569;52.018;5.584;2022-11-27T15:23:54;10.48;;;6.30;;
67768;SDS011;54569;52.018;5.584;2022-11-27T15:26:31;6.90;;;6.05;;
67768;SDS011;54569;52.018;5.584;2022-11-27T15:28:59;9.27;;;5.55;;
67768;SDS011;54569;52.018;5.584;2022-11-27T15:31:29;7.82;;;5.40;;
67768;SDS011;54569;52.018;5.584;2022-11-27T15:34:04;8.02;;;5.35;;
67768;SDS011;54569;52.018;5.584;2022-11-27T15:36:40;7.03;;;5.53;;
67768;SDS011;54569;52.018;5.584;2022-11-27T15:39:13;9.18;;;5.53;;
67768;SDS011;54569;52.018;5.584;2022-11-27T15:41:58;11.70;;;5.93;;
67768;SDS011;54569;52.018;5.584;2022-11-27T15:44:26;7.55;;;5.85;;
67768;SDS011;54569;52.018;5.584;2022-11-27T15:46:54;6.35;;;5.05;;
67768;SDS011;54569;52.018;5.584;2022-11-27T15:49:21;8.77;;;4.97;;
67768;SDS011;54569;52.018;5.584;2022-11-27T15:51:47;7.75;;;5.00;;
67768;SDS011;54569;52.018;5.584;2022-11-27T15:54:13;7.38;;;4.82;;
67768;SDS011;54569;52.018;5.584;2022-11-27T15:56:39;6.68;;;4.68;;
67768;SDS011;54569;52.018;5.584;2022-11-27T15:59:05;6.28;;;4.65;;
67768;SDS011;54569;52.018;5.584;2022-11-27T16:01:31;7.47;;;4.40;;
67768;SDS011;54569;52.018;5.584;2022-11-27T16:03:57;8.43;;;5.15;;
67768;SDS011;54569;52.018;5.584;2022-11-27T16:06:23;8.43;;;4.80;;
67768;SDS011;54569;52.018;5.584;2022-11-27T16:08:55;6.75;;;4.68;;
67768;SDS011;54569;52.018;5.584;2022-11-27T16:11:22;7.90;;;5.45;;
67768;SDS011;54569;52.018;5.584;2022-11-27T16:13:49;7.55;;;5.03;;
67768;SDS011;54569;52.018;5.584;2022-11-27T16:16:15;7.15;;;5.18;;
67768;SDS011;54569;52.018;5.584;2022-11-27T16:18:41;5.80;;;5.00;;
67768;SDS011;54569;52.018;5.584;2022-11-27T16:21:07;6.07;;;4.63;;
67768;SDS011;54569;52.018;5.584;2022-11-27T16:23:35;6.28;;;4.53;;
67768;SDS011;54569;52.018;5.584;2022-11-27T16:26:02;5.70;;;4.28;;
67768;SDS011;54569;52.018;5.584;2022-11-27T16:28:29;6.05;;;4.65;;
67768;SDS011;54569;52.018;5.584;2022-11-27T16:30:57;6.70;;;4.20;;
67768;SDS011;54569;52.018;5.584;2022-11-27T16:33:27;6.97;;;4.50;;
67768;SDS011;54569;52.018;5.584;2022-11-27T16:35:54;7.28;;;4.57;;
67768;SDS011;54569;52.018;5.584;2022-11-27T16:38:21;7.95;;;4.75;;
67768;SDS011;54569;52.018;5.584;2022-11-27T16:40:47;7.63;;;4.88;;
67768;SDS011;54569;52.018;5.584;2022-11-27T16:43:14;6.93;;;4.43;;
67768;SDS011;54569;52.018;5.584;2022-11-27T16:45:41;7.70;;;4.72;;
67768;SDS011;54569;52.018;5.584;2022-11-27T16:48:07;7.05;;;5.10;;
67768;SDS011;54569;52.018;5.584;2022-11-27T16:50:33;6.88;;;5.10;;